createdAt,value
2019-02-02T00:01:50.444Z,14.55
2019-02-02T00:04:20.510Z,14.80
2019-02-02T00:06:50.550Z,14.65
2019-02-02T00:09:20.724Z,15.43
2019-02-02T00:11:50.756Z,13.70
2019-02-02T00:14:21.850Z,14.10
2019-02-02T00:16:52.188Z,15.17
2019-02-02T00:19:22.610Z,13.63
2019-02-02T00:21:53.028Z,14.67
2019-02-02T00:24:23.216Z,15.88
2019-02-02T00:26:53.690Z,15.40
2019-02-02T00:29:23.688Z,15.57
2019-02-02T00:31:54.436Z,14.10
2019-02-02T00:34:24.434Z,13.90
2019-02-02T00:36:54.482Z,15.90
2019-02-02T00:39:24.570Z,14.05
2019-02-02T00:41:54.658Z,15.05
2019-02-02T00:44:24.696Z,14.80
2019-02-02T00:46:55.088Z,14.35
2019-02-02T00:49:25.470Z,16.05
2019-02-02T00:51:55.882Z,15.53
2019-02-02T00:54:27.118Z,14.20
2019-02-02T00:56:57.150Z,14.55
2019-02-02T00:59:27.160Z,14.70
2019-02-02T01:01:57.162Z,13.85
2019-02-02T01:04:27.194Z,13.83
2019-02-02T01:06:57.226Z,15.72
2019-02-02T01:09:27.394Z,13.40
2019-02-02T01:11:57.504Z,14.40
2019-02-02T01:14:27.507Z,14.85
2019-02-02T01:16:58.495Z,14.53
2019-02-02T01:19:28.701Z,14.03
2019-02-02T01:21:58.804Z,14.15
2019-02-02T01:24:28.894Z,14.63
2019-02-02T01:26:59.299Z,14.55
2019-02-02T01:29:29.313Z,14.80
2019-02-02T01:31:59.647Z,14.10
2019-02-02T01:34:29.971Z,15.55
2019-02-02T01:36:59.982Z,13.93
2019-02-02T01:39:30.023Z,14.58
2019-02-02T01:42:00.110Z,13.80
2019-02-02T01:44:30.936Z,13.60
2019-02-02T01:47:00.929Z,14.18
2019-02-02T01:49:31.292Z,14.05
2019-02-02T01:52:01.410Z,14.35
2019-02-02T01:54:31.429Z,14.63
2019-02-02T01:57:01.821Z,13.60
2019-02-02T01:59:31.843Z,13.93
2019-02-02T02:02:01.835Z,14.23
2019-02-02T02:04:31.843Z,13.65
2019-02-02T02:07:01.825Z,13.58
2019-02-02T02:09:32.253Z,14.85
2019-02-02T02:12:02.672Z,14.05
2019-02-02T02:14:32.683Z,13.35
2019-02-02T02:17:02.863Z,13.50
2019-02-02T02:19:32.912Z,14.70
2019-02-02T02:22:02.907Z,13.93
2019-02-02T02:24:32.896Z,14.65
2019-02-02T02:27:02.977Z,15.20
2019-02-02T02:29:32.988Z,14.90
2019-02-02T02:32:02.996Z,14.65
2019-02-02T02:34:33.014Z,13.35
2019-02-02T02:37:03.013Z,14.10
2019-02-02T02:39:33.054Z,13.08
2019-02-02T02:42:03.397Z,13.88
2019-02-02T02:44:33.397Z,13.33
2019-02-02T02:47:03.399Z,15.40
2019-02-02T02:49:33.397Z,13.50
2019-02-02T02:52:04.657Z,13.70
2019-02-02T02:54:34.650Z,13.53
2019-02-02T02:57:05.321Z,13.28
2019-02-02T02:59:35.331Z,13.88
2019-02-02T03:02:05.533Z,14.00
2019-02-02T03:04:35.546Z,15.00
2019-02-02T03:07:05.966Z,13.50
2019-02-02T03:09:36.025Z,14.50
2019-02-02T03:12:06.133Z,13.30
2019-02-02T03:14:36.170Z,14.07
2019-02-02T03:17:06.514Z,14.55
2019-02-02T03:19:36.538Z,13.65
2019-02-02T03:22:06.537Z,13.50
2019-02-02T03:24:36.839Z,13.85
2019-02-02T03:27:06.836Z,15.00
2019-02-02T03:29:37.179Z,14.45
2019-02-02T03:32:07.158Z,13.07
2019-02-02T03:34:37.526Z,14.40
2019-02-02T03:37:07.638Z,14.50
2019-02-02T03:39:37.658Z,14.25
2019-02-02T03:42:07.661Z,14.95
2019-02-02T03:44:37.689Z,14.40
2019-02-02T03:47:08.182Z,15.05
2019-02-02T03:49:38.183Z,13.75
2019-02-02T03:52:08.171Z,13.60
2019-02-02T03:54:38.205Z,13.13
2019-02-02T03:57:08.265Z,13.90
2019-02-02T03:59:38.277Z,13.75
2019-02-02T04:02:08.289Z,14.18
2019-02-02T04:04:38.366Z,14.20
2019-02-02T04:07:08.380Z,13.30
2019-02-02T04:09:38.376Z,13.73
2019-02-02T04:12:08.765Z,14.23
2019-02-02T04:14:38.761Z,13.43
2019-02-02T04:17:08.767Z,14.07
2019-02-02T04:19:38.761Z,13.67
2019-02-02T04:22:08.761Z,14.87
2019-02-02T04:24:39.077Z,15.60
2019-02-02T04:27:09.480Z,13.80
2019-02-02T04:29:39.499Z,12.75
2019-02-02T04:32:09.506Z,13.30
2019-02-02T04:34:39.667Z,13.85
2019-02-02T04:37:09.653Z,13.67
2019-02-02T04:39:39.672Z,13.57
2019-02-02T04:42:09.689Z,13.85
2019-02-02T04:44:40.029Z,13.72
2019-02-02T04:47:10.350Z,14.10
2019-02-02T04:49:40.376Z,13.70
2019-02-02T04:52:10.354Z,13.63
2019-02-02T04:54:40.407Z,13.50
2019-02-02T04:57:10.417Z,13.10
2019-02-02T04:59:40.418Z,12.57
2019-02-02T05:02:10.735Z,13.72
2019-02-02T05:04:40.825Z,12.97
2019-02-02T05:07:10.819Z,13.70
2019-02-02T05:09:40.872Z,14.00
2019-02-02T05:12:10.870Z,14.37
2019-02-02T05:14:40.897Z,14.23
2019-02-02T05:17:10.903Z,14.30
2019-02-02T05:19:40.912Z,13.85
2019-02-02T05:22:10.900Z,11.77
2019-02-02T05:24:41.019Z,12.80
2019-02-02T05:27:11.039Z,13.30
2019-02-02T05:29:41.817Z,13.25
2019-02-02T05:32:13.411Z,12.58
2019-02-02T05:34:43.396Z,12.40
2019-02-02T05:37:13.912Z,11.60
2019-02-02T05:39:43.887Z,12.20
2019-02-02T05:42:13.903Z,12.07
2019-02-02T05:44:43.867Z,10.50
2019-02-02T05:47:13.930Z,11.55
2019-02-02T05:49:43.919Z,11.70
2019-02-02T05:52:14.254Z,12.00
2019-02-02T05:54:44.406Z,10.60
2019-02-02T05:57:14.776Z,10.75
2019-02-02T05:59:52.564Z,10.97
2019-02-02T06:02:16.472Z,11.43
2019-02-02T06:04:46.516Z,10.82
2019-02-02T06:07:17.510Z,9.03
2019-02-02T06:09:47.515Z,10.70
2019-02-02T06:12:17.524Z,10.90
2019-02-02T06:14:47.567Z,10.28
2019-02-02T06:17:17.537Z,10.93
2019-02-02T06:19:47.562Z,10.30
2019-02-02T06:22:17.560Z,10.70
2019-02-02T06:24:47.562Z,9.50
2019-02-02T06:27:17.617Z,9.75
2019-02-02T06:29:48.082Z,10.47
2019-02-02T06:32:18.086Z,9.90
2019-02-02T06:34:48.105Z,10.70
2019-02-02T06:37:18.094Z,10.05
2019-02-02T06:39:48.091Z,9.70
2019-02-02T06:42:18.079Z,11.80
2019-02-02T06:44:48.501Z,12.13
2019-02-02T06:47:18.812Z,13.00
2019-02-02T06:49:48.832Z,14.00
2019-02-02T06:52:19.153Z,12.75
2019-02-02T06:54:49.200Z,14.37
2019-02-02T06:57:19.177Z,13.30
2019-02-02T06:59:49.210Z,14.27
2019-02-02T07:02:19.217Z,13.20
2019-02-02T07:04:49.551Z,13.90
2019-02-02T07:07:19.551Z,12.90
2019-02-02T07:09:50.544Z,14.43
2019-02-02T07:12:21.217Z,12.68
2019-02-02T07:14:51.254Z,13.75
2019-02-02T07:17:21.286Z,13.75
2019-02-02T07:19:51.311Z,13.13
2019-02-02T07:22:21.337Z,12.82
2019-02-02T07:24:51.835Z,12.28
2019-02-02T07:27:21.854Z,13.90
2019-02-02T07:29:51.991Z,16.87
2019-02-02T07:32:22.001Z,19.77
2019-02-02T07:34:52.010Z,20.12
2019-02-02T07:37:22.299Z,18.12
2019-02-02T07:39:53.245Z,16.40
2019-02-02T07:42:23.655Z,15.67
2019-02-02T07:44:53.670Z,14.38
2019-02-02T07:47:23.685Z,13.93
2019-02-02T07:49:53.711Z,13.15
2019-02-02T07:52:23.727Z,13.35
2019-02-02T07:54:53.749Z,13.08
2019-02-02T07:57:23.760Z,12.60
2019-02-02T07:59:54.538Z,11.63
2019-02-02T08:02:24.543Z,12.90
2019-02-02T08:04:54.871Z,12.70
2019-02-02T08:07:25.866Z,12.95
2019-02-02T08:09:55.861Z,12.70
2019-02-02T08:12:26.246Z,10.85
2019-02-02T08:14:56.247Z,11.95
2019-02-02T08:17:26.319Z,11.80
2019-02-02T08:19:56.735Z,9.90
2019-02-02T08:22:27.434Z,10.80
2019-02-02T08:24:57.432Z,11.28
2019-02-02T08:27:28.386Z,11.45
2019-02-02T08:29:59.147Z,10.45
2019-02-02T08:32:29.168Z,11.08
2019-02-02T08:34:59.197Z,11.95
2019-02-02T08:37:29.700Z,10.80
2019-02-02T08:39:59.761Z,11.75
2019-02-02T08:42:31.339Z,10.80
2019-02-02T08:45:03.258Z,10.45
2019-02-02T08:47:33.632Z,10.35
2019-02-02T08:50:04.362Z,11.07
2019-02-02T08:52:35.111Z,11.48
2019-02-02T08:55:06.729Z,10.88
2019-02-02T08:57:37.813Z,10.48
2019-02-02T09:00:11.105Z,11.00
2019-02-02T09:02:41.433Z,11.43
2019-02-02T09:05:12.973Z,11.10
2019-02-02T09:07:43.099Z,11.53
2019-02-02T09:10:19.513Z,12.40
2019-02-02T09:12:49.883Z,12.53
2019-02-02T09:15:20.896Z,12.15
2019-02-02T09:17:50.977Z,12.28
2019-02-02T09:20:21.338Z,11.25
2019-02-02T09:23:02.627Z,10.33
2019-02-02T09:25:23.251Z,11.00
2019-02-02T09:27:53.308Z,10.70
2019-02-02T09:30:25.710Z,11.20
2019-02-02T09:32:55.836Z,11.30
2019-02-02T09:35:25.879Z,11.18
2019-02-02T09:37:55.926Z,9.65
2019-02-02T09:40:25.938Z,10.25
2019-02-02T09:42:56.403Z,10.97
2019-02-02T09:45:26.730Z,10.40
2019-02-02T09:47:56.764Z,9.63
2019-02-02T09:50:27.721Z,10.00
2019-02-02T09:52:57.771Z,10.13
2019-02-02T09:55:27.813Z,10.20
2019-02-02T09:58:00.943Z,9.77
2019-02-02T10:00:32.092Z,8.97
2019-02-02T10:03:02.166Z,9.00
2019-02-02T10:05:32.438Z,9.37
2019-02-02T10:08:02.457Z,10.20
2019-02-02T10:10:33.885Z,9.40
2019-02-02T10:13:04.199Z,10.00
2019-02-02T10:15:34.217Z,9.90
2019-02-02T10:18:04.859Z,9.30
2019-02-02T10:20:35.252Z,8.70
2019-02-02T10:23:05.892Z,8.77
2019-02-02T10:25:35.904Z,9.57
2019-02-02T10:28:06.971Z,9.40
2019-02-02T10:30:43.392Z,8.70
2019-02-02T10:33:14.904Z,8.88
2019-02-02T10:35:44.935Z,8.55
2019-02-02T10:38:15.412Z,9.20
2019-02-02T10:40:45.439Z,8.78
2019-02-02T10:43:15.549Z,8.63
2019-02-02T10:45:45.561Z,8.63
2019-02-02T10:48:15.710Z,8.47
2019-02-02T10:50:45.774Z,8.47
2019-02-02T10:53:15.764Z,7.90
2019-02-02T10:55:46.159Z,7.87
2019-02-02T10:58:16.254Z,7.33
2019-02-02T11:04:03.092Z,6.33
2019-02-02T11:06:33.135Z,7.62
2019-02-02T11:09:03.257Z,6.65
2019-02-02T11:11:34.562Z,6.40
2019-02-02T11:14:05.411Z,6.25
2019-02-02T11:16:35.917Z,5.83
2019-02-02T11:19:06.305Z,6.00
2019-02-02T11:21:36.528Z,5.80
2019-02-02T11:24:06.778Z,6.27
2019-02-02T11:26:36.904Z,6.90
2019-02-02T11:29:07.200Z,6.20
2019-02-02T11:31:37.590Z,7.50
2019-02-02T11:34:07.575Z,6.90
2019-02-02T11:36:37.574Z,6.40
2019-02-02T11:39:08.594Z,7.00
2019-02-02T11:41:38.671Z,7.10
2019-02-02T11:44:08.730Z,6.05
2019-02-02T11:46:38.738Z,6.30
2019-02-02T11:49:08.866Z,6.50
2019-02-02T11:51:38.856Z,6.97
2019-02-02T11:54:08.881Z,5.80
2019-02-02T11:56:38.883Z,6.20
2019-02-02T11:59:08.896Z,6.17
2019-02-02T12:01:38.923Z,7.00
2019-02-02T12:04:08.956Z,5.83
2019-02-02T12:06:38.961Z,7.10
2019-02-02T12:09:08.973Z,4.90
2019-02-02T12:11:38.949Z,5.60
2019-02-02T12:14:08.965Z,6.37
2019-02-02T12:16:39.780Z,5.28
2019-02-02T12:19:09.848Z,5.80
2019-02-02T12:21:39.848Z,5.37
2019-02-02T12:24:14.337Z,5.43
2019-02-02T12:26:41.927Z,4.97
2019-02-02T12:29:11.935Z,4.90
2019-02-02T12:31:41.966Z,4.60
2019-02-02T12:34:12.035Z,5.40
2019-02-02T12:36:42.069Z,4.90
2019-02-02T12:39:12.210Z,5.27
2019-02-02T12:41:42.235Z,5.37
2019-02-02T12:44:12.250Z,5.07
2019-02-02T12:46:42.776Z,4.97
2019-02-02T12:49:13.119Z,4.80
2019-02-02T12:51:43.131Z,4.93
2019-02-02T12:54:14.204Z,5.03
2019-02-02T12:56:44.499Z,4.47
2019-02-02T12:59:14.995Z,5.07
2019-02-02T13:01:45.276Z,5.43
2019-02-02T13:04:15.408Z,4.70
2019-02-02T13:06:45.516Z,4.77
2019-02-02T13:09:15.531Z,5.13
2019-02-02T13:11:45.939Z,4.53
2019-02-02T13:14:15.951Z,4.73
2019-02-02T13:16:45.956Z,5.57
2019-02-02T13:19:15.976Z,5.00
2019-02-02T13:21:46.307Z,5.30
2019-02-02T13:24:16.326Z,4.80
2019-02-02T13:26:46.655Z,4.97
2019-02-02T13:29:16.733Z,5.13
2019-02-02T13:31:46.761Z,4.90
2019-02-02T13:34:16.781Z,4.80
2019-02-02T13:36:46.854Z,4.83
2019-02-02T13:39:17.238Z,5.20
2019-02-02T13:41:47.639Z,5.40
2019-02-02T13:44:17.679Z,4.50
2019-02-02T13:46:47.711Z,4.60
2019-02-02T13:49:18.127Z,4.70
2019-02-02T13:51:48.107Z,4.33
2019-02-02T13:54:18.433Z,4.73
2019-02-02T13:56:49.913Z,4.60
2019-02-02T13:59:20.124Z,4.30
2019-02-02T14:01:50.130Z,4.77
2019-02-02T14:04:20.476Z,4.67
2019-02-02T14:06:50.454Z,4.90
2019-02-02T14:09:20.459Z,4.87
2019-02-02T14:11:50.547Z,4.80
2019-02-02T14:14:20.578Z,4.30
2019-02-02T14:16:50.864Z,4.13
2019-02-02T14:19:21.762Z,4.23
2019-02-02T14:21:51.778Z,4.40
2019-02-02T14:24:21.829Z,4.17
2019-02-02T14:26:51.944Z,4.83
2019-02-02T14:29:22.003Z,4.50
2019-02-02T14:31:52.058Z,4.50
2019-02-02T14:34:22.064Z,4.53
2019-02-02T14:36:52.054Z,4.10
2019-02-02T14:39:22.744Z,4.50
2019-02-02T14:41:52.803Z,4.80
2019-02-02T14:44:22.906Z,4.30
2019-02-02T14:46:52.895Z,5.30
2019-02-02T14:49:24.005Z,4.80
2019-02-02T14:51:53.990Z,5.13
2019-02-02T14:54:23.972Z,5.07
2019-02-02T14:56:53.982Z,4.47
2019-02-02T14:59:24.292Z,4.13
2019-02-02T15:01:54.642Z,4.63
2019-02-02T15:04:24.723Z,4.53
2019-02-02T15:06:55.101Z,4.33
2019-02-02T15:09:26.173Z,4.73
2019-02-02T15:11:57.067Z,4.73
2019-02-02T15:14:27.135Z,4.70
2019-02-02T15:16:57.500Z,4.53
2019-02-02T15:19:27.509Z,4.77
2019-02-02T15:21:57.565Z,5.10
2019-02-02T15:24:27.566Z,5.43
2019-02-02T15:26:57.974Z,5.23
2019-02-02T15:29:28.299Z,5.57
2019-02-02T15:31:58.326Z,4.97
2019-02-02T15:34:28.645Z,5.07
2019-02-02T15:36:58.670Z,6.03
2019-02-02T15:39:28.697Z,5.87
2019-02-02T15:41:58.841Z,6.50
2019-02-02T15:44:28.880Z,6.17
2019-02-02T15:46:58.967Z,6.30
2019-02-02T15:49:28.979Z,7.20
2019-02-02T15:51:59.050Z,6.80
2019-02-02T15:54:29.059Z,6.50
2019-02-02T15:56:59.100Z,6.90
2019-02-02T15:59:29.585Z,7.97
2019-02-02T16:01:59.958Z,8.47
2019-02-02T16:04:29.987Z,7.93
2019-02-02T16:07:00.394Z,7.57
2019-02-02T16:09:30.863Z,8.13
2019-02-02T16:12:00.951Z,7.13
2019-02-02T16:14:30.963Z,6.83
2019-02-02T16:17:00.972Z,7.37
2019-02-02T16:19:30.965Z,6.80
2019-02-02T16:22:01.139Z,7.90
2019-02-02T16:24:31.932Z,7.13
2019-02-02T16:27:02.027Z,6.97
2019-02-02T16:29:32.383Z,7.37
2019-02-02T16:32:02.387Z,7.20
2019-02-02T16:34:32.443Z,7.30
2019-02-02T16:37:02.828Z,7.27
2019-02-02T16:39:32.915Z,6.93
2019-02-02T16:42:02.925Z,6.87
2019-02-02T16:44:32.921Z,6.97
2019-02-02T16:47:03.032Z,7.70
2019-02-02T16:49:33.154Z,6.97
2019-02-02T16:52:03.243Z,6.90
2019-02-02T16:54:33.270Z,7.20
2019-02-02T16:57:04.026Z,6.90
2019-02-02T16:59:34.439Z,7.20
2019-02-02T17:02:04.437Z,6.77
2019-02-02T17:04:34.421Z,7.10
2019-02-02T17:07:04.476Z,7.13
2019-02-02T17:09:34.505Z,7.77
2019-02-02T17:12:05.390Z,9.37
2019-02-02T17:14:36.366Z,8.97
2019-02-02T17:17:07.195Z,8.60
2019-02-02T17:19:37.217Z,8.30
2019-02-02T17:22:07.227Z,9.37
2019-02-02T17:24:37.222Z,8.27
2019-02-02T17:27:07.242Z,8.60
2019-02-02T17:29:37.225Z,10.13
2019-02-02T17:32:07.236Z,8.20
2019-02-02T17:34:37.495Z,8.50
2019-02-02T17:37:08.364Z,8.53
2019-02-02T17:39:38.350Z,9.47
2019-02-02T17:42:08.689Z,8.80
2019-02-02T17:44:38.738Z,9.53
2019-02-02T17:47:08.772Z,8.40
2019-02-02T17:49:38.779Z,9.30
2019-02-02T17:52:08.807Z,9.27
2019-02-02T17:54:38.827Z,9.30
2019-02-02T17:57:09.210Z,9.10
2019-02-02T17:59:39.232Z,9.10
2019-02-02T18:02:09.237Z,10.13
2019-02-02T18:04:43.076Z,10.23
2019-02-02T18:07:10.953Z,10.80
2019-02-02T18:09:40.972Z,10.83
2019-02-02T18:12:10.985Z,11.90
2019-02-02T18:14:40.969Z,12.30
2019-02-02T18:17:10.972Z,11.47
2019-02-02T18:19:41.036Z,12.80
2019-02-02T18:22:11.059Z,12.57
2019-02-02T18:24:41.608Z,13.23
2019-02-02T18:27:11.585Z,14.23
2019-02-02T18:29:41.589Z,13.13
2019-02-02T18:32:13.215Z,15.10
2019-02-02T18:34:51.037Z,14.30
2019-02-02T18:37:15.616Z,14.43
2019-02-02T18:39:45.634Z,15.03
2019-02-02T18:42:15.650Z,14.63
2019-02-02T18:44:45.666Z,14.77
2019-02-02T18:47:15.660Z,15.33
2019-02-02T18:49:46.224Z,16.00
2019-02-02T18:52:16.692Z,15.03
2019-02-02T18:54:46.701Z,14.67
2019-02-02T18:57:17.470Z,15.70
2019-02-02T18:59:47.615Z,15.87
2019-02-02T19:02:17.627Z,15.47
2019-02-02T19:04:48.080Z,15.73
2019-02-02T19:07:18.101Z,17.03
2019-02-02T19:09:48.472Z,16.37
2019-02-02T19:12:18.554Z,17.13
2019-02-02T19:14:48.912Z,17.97
2019-02-02T19:17:19.672Z,16.60
2019-02-02T19:19:49.720Z,15.83
2019-02-02T19:22:19.775Z,17.30
2019-02-02T19:24:49.947Z,18.50
2019-02-02T19:27:19.962Z,17.20
2019-02-02T19:29:50.260Z,15.77
2019-02-02T19:32:20.474Z,17.60
2019-02-02T19:34:50.487Z,16.47
2019-02-02T19:37:21.194Z,17.80
2019-02-02T19:39:51.477Z,16.97
2019-02-02T19:42:21.504Z,15.13
2019-02-02T19:44:51.533Z,15.27
2019-02-02T19:47:21.535Z,14.30
2019-02-02T19:49:51.661Z,14.97
2019-02-02T19:52:21.695Z,15.77
2019-02-02T19:54:51.716Z,15.33
2019-02-02T19:57:22.095Z,14.90
2019-02-02T19:59:52.102Z,15.47
2019-02-02T20:02:22.116Z,15.40
2019-02-02T20:04:52.133Z,13.90
2019-02-02T20:07:22.127Z,15.50
2019-02-02T20:09:52.141Z,14.50
2019-02-02T20:12:22.293Z,15.07
2019-02-02T20:14:52.296Z,14.90
2019-02-02T20:17:22.327Z,16.13
2019-02-02T20:19:52.342Z,14.83
2019-02-02T20:22:23.075Z,16.53
2019-02-02T20:24:53.093Z,15.47
2019-02-02T20:27:23.091Z,16.73
2019-02-02T20:29:54.251Z,15.80
2019-02-02T20:32:24.667Z,16.23
2019-02-02T20:34:54.711Z,17.67
2019-02-02T20:37:24.736Z,16.70
2019-02-02T20:39:54.809Z,18.00
2019-02-02T20:42:24.980Z,16.20
2019-02-02T20:44:55.425Z,18.13
2019-02-02T20:47:25.906Z,18.87
2019-02-02T20:49:56.395Z,19.60
2019-02-02T20:52:26.407Z,20.00
2019-02-02T20:54:56.736Z,20.90
2019-02-02T20:57:26.833Z,20.03
2019-02-02T20:59:56.843Z,21.10
2019-02-02T21:02:27.742Z,20.32
2019-02-02T21:04:58.136Z,20.00
2019-02-02T21:07:28.156Z,21.77
2019-02-02T21:10:00.991Z,20.80
2019-02-02T21:12:32.195Z,19.57
2019-02-02T21:15:02.242Z,20.47
2019-02-02T21:17:33.549Z,19.90
2019-02-02T21:20:04.307Z,21.93
2019-02-02T21:22:34.465Z,20.70
2019-02-02T21:25:05.645Z,21.30
2019-02-02T21:27:35.690Z,21.90
2019-02-02T21:30:08.357Z,22.80
2019-02-02T21:32:38.377Z,25.23
2019-02-02T21:35:08.824Z,21.67
2019-02-02T21:37:39.610Z,22.53
2019-02-02T21:40:12.139Z,22.70
2019-02-02T21:42:42.193Z,23.00
2019-02-02T21:45:13.405Z,24.57
2019-02-02T21:47:43.447Z,21.93
2019-02-02T21:50:18.981Z,23.90
2019-02-02T21:52:49.034Z,24.52
2019-02-02T21:55:20.957Z,24.77
2019-02-02T21:57:51.332Z,22.37
2019-02-02T22:00:41.246Z,24.00
2019-02-02T22:03:11.676Z,23.07
2019-02-02T22:05:42.134Z,22.87
2019-02-02T22:08:12.138Z,23.30
2019-02-02T22:10:42.414Z,23.33
2019-02-02T22:13:12.649Z,23.42
2019-02-02T22:15:42.704Z,24.83
2019-02-02T22:18:12.896Z,22.97
2019-02-02T22:20:43.001Z,24.57
2019-02-02T22:23:13.616Z,23.30
2019-02-02T22:25:43.743Z,22.70
2019-02-02T22:28:13.847Z,23.53
2019-02-02T22:30:44.291Z,24.40
2019-02-02T22:33:14.413Z,24.80
2019-02-02T22:35:44.845Z,25.13
2019-02-02T22:38:14.824Z,25.73
2019-02-02T22:40:44.969Z,24.57
2019-02-02T22:43:15.135Z,25.63
2019-02-02T22:45:45.149Z,26.10
2019-02-02T22:48:15.832Z,24.93
2019-02-02T22:50:45.939Z,23.17
2019-02-02T22:53:15.938Z,24.10
2019-02-02T22:55:45.977Z,24.60
2019-02-02T22:58:16.722Z,24.07
2019-02-02T23:01:07.943Z,25.30
2019-02-02T23:04:27.948Z,25.80
2019-02-02T23:07:27.223Z,25.67
2019-02-02T23:10:38.200Z,25.97
2019-02-02T23:13:39.350Z,25.77
2019-02-02T23:16:28.833Z,26.27
2019-02-02T23:19:00.500Z,25.10
2019-02-02T23:21:31.740Z,25.50
2019-02-02T23:24:01.802Z,25.53
2019-02-02T23:26:31.808Z,25.10
2019-02-02T23:29:02.199Z,25.53
2019-02-02T23:31:32.917Z,25.20
2019-02-02T23:34:02.969Z,25.47
2019-02-02T23:36:33.352Z,26.67
2019-02-02T23:39:04.480Z,27.03
2019-02-02T23:41:35.081Z,24.50
2019-02-02T23:44:05.432Z,24.83
2019-02-02T23:46:35.771Z,25.60
2019-02-02T23:49:05.870Z,24.50
2019-02-02T23:51:35.927Z,23.30
2019-02-02T23:54:05.918Z,25.87
2019-02-02T23:56:35.960Z,24.20
2019-02-02T23:59:05.953Z,25.00
